Portada
METAR-TAF:

METAR-TAF

Aeropuertos :

Irkutsk, Rusia

Aeropuerto Internacional de Irkutsk

latitud: 52-16N, longitud: 104-19E, altitud: 513 m

Observación

El informe se hizo hace 16 minutos, a las 23:00 UTC
Viento 8 kt del sur-sureste
Temperatura 3°C
Humedad 75%
Presión 1023 hPa
Visibilidad 10 km o más
sin nubes por debajo de 1500 m y sin presencia de cumulonimbus.

METAR: UIII 212300Z 15004MPS CAVOK 03/M01 Q1023 R12/60D NOSIG RMK QFE724/0966

Hora: 07:16 (23:16 UTC)

Pronóstico

El informe se hizo hace 3 horas y 16 minutos, a las 20:00 UTC
Pronóstico válido del 21 a las 21 UTC al 22 a las 21 UTC
Viento 6 kt del sur-sureste
Visibilidad 10 km o más
Evolucionando progresivamente
del 22 a las 04 UTC al 22 a las 06 UTC
Viento 16 kt del sur-sureste

TAF: UIII 212000Z 2121/2221 16003MPS 9999 NSC BECMG 2204/2206 16008MPS

Observaciones y pronósticos meteorológicos de más de 4000 aeropuertos (mensajes METAR y TAF).

Los puntos amarillos y rojos representan las estaciones disponibles.

Ponga el ratón en el punto deseado para ver el nombre de la estación.

Haga clic para ver las observaciones y los pronósticos meteorológicos.

Para cambiar el mapa : haga clic en los botones verdes con una cruz de color negro para hacer un zoom, en el botón verde con un guión para alejar o en las flechas verdes para mapas adyacentes.


METAR-TAF: